Time;durP1;ratioP1;P1;durP2;ratioP2;P2;SDS_P1;SDS_P2;PMS_P1;PMS_P2;Temp;Humidity;BMP_temperature;BMP_pressure;BME280_temperature;BME280_humidity;BME280_pressure;Samples;Min_cycle;Max_cycle;Signal;HPM_P1;HPM_P2
2021/12/21 00:01:37;;;;;;;23.23;9.98;;;6.00;55.70;;;;;;6267764;28;20037;-70
2021/12/21 00:04:38;;;;;;;16.40;7.15;;;5.90;55.70;;;;;;6249334;28;20048;-70
2021/12/21 00:07:41;;;;;;;28.08;9.00;;;5.90;55.60;;;;;;6235938;28;20033;-70
2021/12/21 00:10:45;;;;;;;32.10;10.02;;;5.90;55.60;;;;;;6273767;28;20041;-70
2021/12/21 00:13:58;;;;;;;23.88;8.15;;;5.90;55.60;;;;;;6273435;28;20033;-70
2021/12/21 00:20:31;;;;;;;20.60;9.30;;;5.90;55.50;;;;;;6271820;28;20072;-70
2021/12/21 00:26:39;;;;;;;19.38;8.13;;;5.80;55.50;;;;;;6247612;28;20033;-70
2021/12/21 00:29:40;;;;;;;28.55;8.73;;;5.80;55.60;;;;;;6229534;28;20367;-70
2021/12/21 00:32:43;;;;;;;15.85;7.78;;;5.80;55.60;;;;;;6240553;28;20045;-70
2021/12/21 00:35:45;;;;;;;21.10;6.95;;;5.80;55.60;;;;;;6230803;28;20411;-70
2021/12/21 00:38:48;;;;;;;20.90;8.20;;;5.80;55.60;;;;;;6248494;28;20037;-70
2021/12/21 00:41:50;;;;;;;22.65;7.57;;;5.80;55.60;;;;;;6247836;28;20034;-70
2021/12/21 00:44:51;;;;;;;15.52;6.13;;;5.90;55.70;;;;;;6247981;28;20128;-70
2021/12/21 00:47:52;;;;;;;21.58;8.27;;;5.90;55.60;;;;;;6247022;28;20052;-70
2021/12/21 00:50:55;;;;;;;25.95;7.85;;;5.90;55.30;;;;;;6248113;28;20485;-71
2021/12/21 00:53:56;;;;;;;27.90;8.90;;;5.90;55.20;;;;;;6248066;28;20036;-71
2021/12/21 00:56:57;;;;;;;28.63;9.77;;;5.90;55.20;;;;;;6247611;28;20040;-70
2021/12/21 00:59:58;;;;;;;20.48;8.45;;;5.80;55.30;;;;;;6232779;28;20049;-70
2021/12/21 01:03:05;;;;;;;22.45;8.60;;;5.80;55.20;;;;;;6225750;28;20045;-69
2021/12/21 01:06:15;;;;;;;22.88;9.88;;;5.80;55.30;;;;;;6247498;28;20116;-69
2021/12/21 01:09:46;;;;;;;22.13;8.23;;;5.70;55.20;;;;;;6247924;28;20037;-69
2021/12/21 01:12:57;;;;;;;24.48;8.50;;;5.70;55.40;;;;;;6248338;28;20033;-69
2021/12/21 01:19:24;;;;;;;22.08;7.13;;;5.70;55.40;;;;;;6247113;28;20084;-70
2021/12/21 01:29:15;;;;;;;25.33;7.53;;;5.60;55.40;;;;;;6239092;28;20084;-69
2021/12/21 01:32:34;;;;;;;18.60;6.53;;;5.60;55.50;;;;;;6233061;28;20029;-70
2021/12/21 01:35:41;;;;;;;20.90;7.93;;;5.60;55.50;;;;;;6220827;28;20136;-70
2021/12/21 01:38:53;;;;;;;22.00;7.07;;;5.60;55.50;;;;;;6251047;28;20032;-70
2021/12/21 01:42:05;;;;;;;19.95;7.65;;;5.50;55.50;;;;;;6267399;28;20045;-69
2021/12/21 01:51:46;;;;;;;18.75;7.13;;;5.60;55.50;;;;;;6236248;28;20049;-70
2021/12/21 01:54:48;;;;;;;16.15;6.05;;;5.60;55.50;;;;;;6244357;28;20469;-70
2021/12/21 01:57:49;;;;;;;24.70;8.90;;;5.60;55.40;;;;;;6251363;28;20104;-70
2021/12/21 02:00:51;;;;;;;16.83;7.32;;;5.60;55.40;;;;;;6242660;28;20033;-70
2021/12/21 02:03:52;;;;;;;22.75;7.97;;;5.60;55.40;;;;;;6258330;28;20045;-70
2021/12/21 02:06:53;;;;;;;14.38;6.43;;;5.70;55.40;;;;;;6252103;28;20090;-70
2021/12/21 02:09:54;;;;;;;22.15;8.40;;;5.70;55.30;;;;;;6267915;28;20052;-70
2021/12/21 02:12:55;;;;;;;20.95;7.50;;;5.80;55.20;;;;;;6268314;28;20120;-68
2021/12/21 02:15:56;;;;;;;23.83;7.10;;;5.80;55.00;;;;;;6239943;28;20040;-70
2021/12/21 02:19:05;;;;;;;19.88;9.00;;;5.70;54.90;;;;;;6267951;28;20033;-70
2021/12/21 02:22:13;;;;;;;16.98;7.03;;;5.70;55.00;;;;;;6265099;28;20060;-69
2021/12/21 02:31:31;;;;;;;14.20;6.57;;;5.70;54.80;;;;;;6246204;28;20371;-71
2021/12/21 02:34:32;;;;;;;19.55;6.50;;;5.70;54.90;;;;;;6247112;28;20383;-70
2021/12/21 02:37:33;;;;;;;22.13;8.55;;;5.70;54.90;;;;;;6254646;28;20037;-70
2021/12/21 02:40:35;;;;;;;11.10;5.72;;;5.60;54.90;;;;;;6269400;28;20358;-70
2021/12/21 02:43:38;;;;;;;14.13;6.57;;;5.60;55.00;;;;;;6268493;28;20048;-69
2021/12/21 02:46:41;;;;;;;23.48;7.15;;;5.60;55.00;;;;;;6250115;28;20048;-69
2021/12/21 02:49:42;;;;;;;16.13;6.93;;;5.60;55.00;;;;;;6268170;28;20036;-69
2021/12/21 02:52:43;;;;;;;17.60;7.10;;;5.60;55.00;;;;;;6267746;28;20115;-70
2021/12/21 02:55:44;;;;;;;17.27;7.72;;;5.60;55.00;;;;;;6268706;28;20056;-69
2021/12/21 02:58:45;;;;;;;19.35;7.57;;;5.70;55.40;;;;;;6234382;28;20046;-69
2021/12/21 03:01:46;;;;;;;23.73;7.95;;;5.70;55.00;;;;;;6195927;28;20037;-70
2021/12/21 03:04:49;;;;;;;17.65;6.82;;;5.70;54.90;;;;;;6246414;28;20109;-70
2021/12/21 03:11:25;;;;;;;17.45;6.75;;;5.70;54.70;;;;;;6235634;28;20363;-69
2021/12/21 03:14:25;;;;;;;16.63;8.15;;;5.70;54.70;;;;;;6241262;28;20385;-69
2021/12/21 03:17:26;;;;;;;20.98;8.52;;;5.70;54.70;;;;;;6269103;28;20052;-69
2021/12/21 03:20:27;;;;;;;16.23;5.90;;;5.70;54.80;;;;;;6226125;28;20039;-69
2021/12/21 03:23:29;;;;;;;21.42;6.95;;;5.70;54.70;;;;;;6244499;28;20038;-70
2021/12/21 03:26:30;;;;;;;15.23;6.63;;;5.70;54.60;;;;;;6227194;28;20091;-70
2021/12/21 03:29:31;;;;;;;16.00;6.07;;;5.70;54.50;;;;;;6237115;28;20037;-70
2021/12/21 03:32:33;;;;;;;26.98;7.57;;;5.60;54.50;;;;;;6259920;28;20035;-70
2021/12/21 03:35:34;;;;;;;16.70;6.80;;;5.50;54.60;;;;;;6258593;28;20367;-71
2021/12/21 03:38:37;;;;;;;15.65;6.15;;;5.50;54.70;;;;;;6268591;28;20056;-69
2021/12/21 03:41:40;;;;;;;17.05;6.93;;;5.40;54.90;;;;;;6268878;28;20060;-69
2021/12/21 03:44:42;;;;;;;16.60;6.35;;;5.40;54.90;;;;;;6270605;28;20056;-69
2021/12/21 03:47:43;;;;;;;23.58;7.85;;;5.50;54.40;;;;;;6273662;28;20040;-69
2021/12/21 03:50:44;;;;;;;12.32;5.22;;;5.40;54.80;;;;;;6271507;28;20120;-69
2021/12/21 03:53:46;;;;;;;16.67;5.95;;;5.40;54.80;;;;;;6274642;28;20135;-69
2021/12/21 03:56:50;;;;;;;19.67;6.65;;;5.40;54.90;;;;;;6272944;28;20033;-69
2021/12/21 03:59:53;;;;;;;15.15;5.75;;;5.30;54.90;;;;;;6260144;28;20048;-70
2021/12/21 04:02:54;;;;;;;21.13;7.05;;;5.40;55.10;;;;;;6252238;28;20042;-69
2021/12/21 04:05:55;;;;;;;15.13;7.70;;;5.40;55.10;;;;;;6249802;28;20459;-70
2021/12/21 04:08:57;;;;;;;18.13;8.23;;;5.50;54.90;;;;;;6255886;28;20036;-69
2021/12/21 04:12:00;;;;;;;13.35;6.07;;;5.50;54.90;;;;;;6274622;28;20377;-69
2021/12/21 04:15:03;;;;;;;17.17;6.70;;;5.50;54.80;;;;;;6272532;28;20106;-69
2021/12/21 04:18:06;;;;;;;24.60;6.65;;;5.50;54.80;;;;;;6249994;28;20033;-68
2021/12/21 04:21:09;;;;;;;16.15;6.82;;;5.50;54.70;;;;;;6247089;28;20030;-68
2021/12/21 04:24:10;;;;;;;16.17;5.90;;;5.40;54.70;;;;;;6266358;28;20087;-69
2021/12/21 04:27:11;;;;;;;13.38;5.90;;;5.40;54.90;;;;;;6273343;28;20041;-69
2021/12/21 04:30:12;;;;;;;12.73;5.28;;;5.40;54.90;;;;;;6236661;28;20058;-69
2021/12/21 04:33:13;;;;;;;11.10;4.75;;;5.40;54.90;;;;;;6251124;28;20427;-68
2021/12/21 04:36:16;;;;;;;18.90;7.03;;;5.40;54.90;;;;;;6247814;28;20038;-69
2021/12/21 04:42:48;;;;;;;18.17;5.18;;;5.40;54.90;;;;;;6244184;28;20103;-68
2021/12/21 04:45:49;;;;;;;14.45;6.38;;;5.40;54.60;;;;;;6242973;28;20052;-69
2021/12/21 04:48:51;;;;;;;18.77;5.82;;;5.40;54.60;;;;;;6228212;28;20191;-69
2021/12/21 04:51:52;;;;;;;14.70;5.45;;;5.30;54.60;;;;;;6243160;28;20036;-69
2021/12/21 04:54:54;;;;;;;15.68;5.85;;;5.20;54.70;;;;;;6227234;28;20041;-69
2021/12/21 04:57:56;;;;;;;14.50;6.15;;;5.20;54.80;;;;;;6224983;28;20042;-69
2021/12/21 05:00:58;;;;;;;24.05;6.72;;;5.20;54.80;;;;;;6219637;28;20049;-69
2021/12/21 05:03:59;;;;;;;10.38;5.32;;;5.20;54.80;;;;;;6206771;28;20030;-69
2021/12/21 05:07:00;;;;;;;21.33;6.05;;;5.20;54.80;;;;;;6227638;28;20040;-69
2021/12/21 05:10:02;;;;;;;14.27;5.82;;;5.20;54.90;;;;;;6242690;28;20139;-69
2021/12/21 05:13:04;;;;;;;20.80;7.13;;;5.30;54.80;;;;;;6227929;28;20536;-69
2021/12/21 05:16:05;;;;;;;17.65;6.32;;;5.30;54.80;;;;;;6242723;28;20057;-69
2021/12/21 05:19:06;;;;;;;15.55;5.75;;;5.40;54.80;;;;;;6260197;28;20048;-69
2021/12/21 05:22:07;;;;;;;17.50;6.38;;;5.40;54.60;;;;;;6245590;28;20033;-69
2021/12/21 05:25:09;;;;;;;13.05;5.90;;;5.40;54.40;;;;;;6264796;28;20033;-70
2021/12/21 05:28:12;;;;;;;12.23;6.20;;;5.30;54.40;;;;;;6265824;28;20072;-70
2021/12/21 05:31:13;;;;;;;17.80;7.80;;;5.20;54.50;;;;;;6245166;28;20033;-70
2021/12/21 05:34:14;;;;;;;22.05;6.85;;;5.10;54.70;;;;;;6249812;28;20037;-69
2021/12/21 05:37:15;;;;;;;13.68;6.30;;;5.00;54.70;;;;;;6241490;28;20511;-69
2021/12/21 05:40:18;;;;;;;22.42;7.38;;;5.00;54.80;;;;;;6244930;28;20407;-69
2021/12/21 05:43:19;;;;;;;15.77;5.75;;;4.90;54.90;;;;;;6262236;28;20033;-69
2021/12/21 05:46:20;;;;;;;18.88;6.68;;;4.80;55.00;;;;;;6269154;28;20041;-69
2021/12/21 05:49:22;;;;;;;12.30;5.25;;;4.80;55.20;;;;;;6267473;28;20116;-69
2021/12/21 05:52:23;;;;;;;14.18;5.93;;;4.70;55.20;;;;;;6269343;28;20033;-69
2021/12/21 05:55:24;;;;;;;13.35;5.45;;;4.70;55.40;;;;;;6245827;28;20049;-69
2021/12/21 05:58:25;;;;;;;15.65;6.70;;;4.70;55.40;;;;;;6263257;28;20056;-68
2021/12/21 06:01:26;;;;;;;17.48;6.72;;;4.70;55.40;;;;;;6266851;28;20041;-68
2021/12/21 06:04:28;;;;;;;13.77;6.32;;;4.70;55.50;;;;;;6248643;28;20044;-68
2021/12/21 06:07:29;;;;;;;14.32;5.63;;;4.70;55.60;;;;;;6268579;28;20053;-69
2021/12/21 06:10:35;;;;;;;19.63;5.63;;;4.70;55.60;;;;;;6268691;28;20433;-69
2021/12/21 06:26:48;;;;;;;13.77;5.97;;;4.60;55.60;;;;;;6242249;28;20185;-70
2021/12/21 06:29:49;;;;;;;11.40;5.60;;;4.60;55.60;;;;;;6225348;28;20475;-70
2021/12/21 06:32:51;;;;;;;16.95;6.30;;;4.70;55.50;;;;;;6213871;28;20030;-70
2021/12/21 06:35:52;;;;;;;21.80;7.30;;;4.60;55.50;;;;;;6217731;28;20061;-71
2021/12/21 06:38:54;;;;;;;16.27;4.55;;;4.60;55.40;;;;;;6215600;28;20493;-70
2021/12/21 06:41:56;;;;;;;18.58;6.55;;;4.60;55.50;;;;;;6184951;28;20042;-70
2021/12/21 06:44:59;;;;;;;15.45;6.65;;;4.50;55.60;;;;;;6200977;28;20360;-70
2021/12/21 06:54:22;;;;;;;17.83;5.88;;;4.70;55.50;;;;;;6230548;28;20106;-70
2021/12/21 06:57:23;;;;;;;15.35;6.68;;;4.70;55.40;;;;;;6225522;28;20477;-70
2021/12/21 07:00:24;;;;;;;16.20;6.60;;;4.70;55.20;;;;;;6243850;28;20029;-70
2021/12/21 07:03:26;;;;;;;23.05;7.07;;;4.70;55.20;;;;;;6245329;28;20171;-70
2021/12/21 07:06:27;;;;;;;14.63;6.15;;;4.80;55.30;;;;;;6265959;28;20095;-70
2021/12/21 07:09:36;;;;;;;18.83;6.18;;;4.80;55.30;;;;;;6266615;28;20029;-70
2021/12/21 07:19:00;;;;;;;19.85;6.55;;;4.90;55.00;;;;;;6270952;28;20473;-70
2021/12/21 07:22:01;;;;;;;13.13;5.35;;;4.60;54.70;;;;;;6273486;28;20098;-70
2021/12/21 07:25:03;;;;;;;16.48;5.97;;;5.00;54.80;;;;;;6271963;28;20335;-69
2021/12/21 07:28:04;;;;;;;17.80;6.50;;;5.00;54.70;;;;;;6273989;28;20466;-70
2021/12/21 07:31:06;;;;;;;13.10;5.55;;;5.00;54.70;;;;;;6249504;28;20103;-70
2021/12/21 07:34:07;;;;;;;11.55;6.60;;;5.10;54.70;;;;;;6250791;28;20029;-70
2021/12/21 07:37:10;;;;;;;20.63;8.05;;;5.10;55.20;;;;;;6248626;28;20063;-69
2021/12/21 07:40:11;;;;;;;17.88;7.60;;;5.10;54.40;;;;;;6248310;28;20099;-70
2021/12/21 07:43:12;;;;;;;16.65;6.80;;;5.10;54.40;;;;;;6249367;28;20049;-70
2021/12/21 07:46:13;;;;;;;14.73;6.35;;;5.00;55.10;;;;;;6244805;28;20503;-69
2021/12/21 07:49:14;;;;;;;16.33;6.15;;;5.10;54.50;;;;;;6247384;28;20041;-69
2021/12/21 07:52:16;;;;;;;12.15;5.72;;;5.10;54.50;;;;;;6248939;28;20044;-69
2021/12/21 07:55:18;;;;;;;15.43;6.07;;;5.10;54.40;;;;;;6246059;28;20056;-70
2021/12/21 07:58:19;;;;;;;14.85;5.57;;;5.00;54.40;;;;;;6267682;28;20462;-70
2021/12/21 08:01:21;;;;;;;15.43;6.55;;;5.10;54.60;;;;;;6245171;28;20478;-69
2021/12/21 08:04:26;;;;;;;17.73;6.22;;;5.10;54.50;;;;;;6251770;28;20029;-71
2021/12/21 08:07:33;;;;;;;18.02;6.45;;;5.20;54.50;;;;;;6251168;28;20063;-70
2021/12/21 08:11:12;;;;;;;16.00;6.35;;;5.20;54.50;;;;;;6251593;28;20358;-70
2021/12/21 08:14:04;;;;;;;14.25;5.85;;;5.30;54.30;;;;;;6240527;28;20041;-75
2021/12/21 08:17:05;;;;;;;14.68;5.95;;;5.40;54.10;;;;;;6243581;28;20056;-77
2021/12/21 08:20:06;;;;;;;10.93;5.43;;;5.40;53.80;;;;;;6234791;28;20037;-73
2021/12/21 08:23:08;;;;;;;15.60;5.10;;;5.40;53.70;;;;;;6254951;28;20473;-74
2021/12/21 08:26:09;;;;;;;14.77;6.15;;;5.30;53.60;;;;;;6248212;28;20050;-75
2021/12/21 08:29:11;;;;;;;20.40;6.97;;;5.30;53.60;;;;;;6229674;28;20465;-75
2021/12/21 08:32:12;;;;;;;15.15;6.13;;;5.30;53.60;;;;;;6250813;28;20037;-75
2021/12/21 08:35:13;;;;;;;15.60;5.85;;;5.30;53.70;;;;;;6198194;28;20399;-74
2021/12/21 08:38:17;;;;;;;20.15;6.05;;;5.30;53.70;;;;;;6245530;28;20042;-72
2021/12/21 08:41:20;;;;;;;22.83;5.85;;;5.30;53.80;;;;;;6232520;28;20114;-71
2021/12/21 08:44:24;;;;;;;18.52;7.18;;;5.30;53.70;;;;;;6247822;28;20096;-70
2021/12/21 08:47:28;;;;;;;15.25;5.45;;;5.40;53.70;;;;;;6246607;28;20068;-71
2021/12/21 08:50:29;;;;;;;14.85;6.13;;;5.40;53.50;;;;;;6248897;28;20067;-71
2021/12/21 08:53:31;;;;;;;20.35;7.28;;;5.40;53.50;;;;;;6233446;28;20423;-71
2021/12/21 08:56:32;;;;;;;16.17;6.82;;;5.50;53.50;;;;;;6238295;28;20030;-70
2021/12/21 08:59:33;;;;;;;17.20;7.65;;;5.50;53.50;;;;;;6245701;28;20371;-72
2021/12/21 09:02:37;;;;;;;17.17;6.55;;;5.60;53.40;;;;;;6266204;28;20085;-71
2021/12/21 09:05:40;;;;;;;13.10;4.95;;;5.70;53.40;;;;;;6252364;28;20040;-70
2021/12/21 09:08:41;;;;;;;22.88;8.13;;;5.70;53.20;;;;;;6237461;28;20039;-71
2021/12/21 09:11:45;;;;;;;17.55;7.78;;;5.70;53.10;;;;;;6262773;28;20159;-70
2021/12/21 09:14:46;;;;;;;17.17;6.72;;;5.60;53.00;;;;;;6267913;28;20032;-71
2021/12/21 09:17:48;;;;;;;19.27;7.10;;;5.60;53.00;;;;;;6247573;28;20034;-71
2021/12/21 09:20:49;;;;;;;13.55;5.65;;;5.70;53.00;;;;;;6232301;28;20041;-72
2021/12/21 09:23:50;;;;;;;17.17;6.68;;;5.60;53.00;;;;;;6251258;28;20354;-71
2021/12/21 09:26:51;;;;;;;23.30;6.72;;;5.70;53.20;;;;;;6225423;28;20374;-72
2021/12/21 09:29:53;;;;;;;16.70;7.13;;;5.80;53.20;;;;;;6219705;28;20041;-72
2021/12/21 09:32:54;;;;;;;18.58;7.25;;;5.80;53.10;;;;;;6234654;28;20038;-72
2021/12/21 09:35:55;;;;;;;19.95;6.30;;;6.00;53.10;;;;;;6242494;28;20037;-71
2021/12/21 09:38:57;;;;;;;22.90;7.68;;;6.00;52.70;;;;;;6245280;28;20420;-72
2021/12/21 09:41:58;;;;;;;11.90;6.72;;;6.00;52.50;;;;;;6262486;28;20162;-72
2021/12/21 09:45:00;;;;;;;16.88;6.30;;;5.90;52.50;;;;;;6271318;28;20449;-72
2021/12/21 09:48:02;;;;;;;19.63;6.63;;;5.90;52.60;;;;;;6269820;28;20056;-72
2021/12/21 09:51:05;;;;;;;31.48;8.18;;;5.90;52.70;;;;;;6268920;28;20407;-72
2021/12/21 09:54:08;;;;;;;20.38;8.20;;;5.80;52.50;;;;;;6246128;28;20034;-72
2021/12/21 09:57:09;;;;;;;15.07;5.78;;;5.80;52.70;;;;;;6261036;28;20044;-72
2021/12/21 10:00:24;;;;;;;18.98;6.60;;;5.80;52.80;;;;;;6266422;28;20041;-71
2021/12/21 10:03:26;;;;;;;19.05;8.68;;;5.80;52.80;;;;;;6256586;28;20042;-71
2021/12/21 10:06:27;;;;;;;14.30;6.15;;;5.80;52.80;;;;;;6253731;28;20049;-72
2021/12/21 10:09:36;;;;;;;16.83;7.07;;;5.90;52.90;;;;;;6270745;28;20068;-72
2021/12/21 10:12:43;;;;;;;18.65;6.03;;;6.00;52.80;;;;;;6270153;28;20097;-72
2021/12/21 10:15:52;;;;;;;29.85;7.30;;;6.10;52.70;;;;;;6271037;28;20489;-72
2021/12/21 10:18:53;;;;;;;15.57;6.45;;;6.00;52.60;;;;;;6239441;28;20195;-73
2021/12/21 10:21:54;;;;;;;19.05;7.10;;;6.10;52.70;;;;;;6238552;28;20344;-73
2021/12/21 10:24:56;;;;;;;18.88;9.23;;;6.20;52.50;;;;;;6227063;28;20372;-72
2021/12/21 10:27:57;;;;;;;19.08;8.10;;;6.20;52.60;;;;;;6249526;28;22498;-72
2021/12/21 10:31:00;;;;;;;23.17;8.27;;;6.20;52.90;;;;;;6246236;28;20340;-73
2021/12/21 10:34:02;;;;;;;38.10;13.70;;;6.30;53.00;;;;;;6247814;28;20033;-73
2021/12/21 10:37:04;;;;;;;31.63;14.68;;;6.50;53.00;;;;;;6245957;28;20100;-71
2021/12/21 10:40:31;;;;;;;25.10;9.52;;;6.60;52.80;;;;;;6246345;28;20038;-73
2021/12/21 10:43:32;;;;;;;25.05;9.75;;;6.70;52.70;;;;;;6243396;28;20029;-73
2021/12/21 10:46:45;;;;;;;21.92;9.05;;;6.70;52.60;;;;;;6238093;28;20038;-71
2021/12/21 10:49:46;;;;;;;31.17;11.23;;;6.80;52.50;;;;;;6222079;28;20034;-73
2021/12/21 10:52:52;;;;;;;40.05;13.32;;;6.90;52.60;;;;;;6243834;28;20324;-73
2021/12/21 10:56:09;;;;;;;29.27;10.77;;;7.00;52.50;;;;;;6244997;28;20545;-71
2021/12/21 10:59:11;;;;;;;25.85;9.70;;;7.20;52.40;;;;;;6249429;28;20033;-72
2021/12/21 11:02:23;;;;;;;23.95;9.70;;;7.30;52.20;;;;;;6245742;28;20048;-71
2021/12/21 11:05:26;;;;;;;25.75;10.60;;;7.40;52.10;;;;;;6221657;28;20378;-71
2021/12/21 11:08:27;;;;;;;26.55;10.43;;;7.50;51.80;;;;;;6249102;28;20060;-71
2021/12/21 11:11:36;;;;;;;23.75;10.25;;;7.50;51.30;;;;;;6268708;28;20119;-72
2021/12/21 11:14:38;;;;;;;31.27;9.65;;;7.40;51.40;;;;;;6269356;28;20105;-72
2021/12/21 11:17:40;;;;;;;24.10;10.40;;;7.40;51.50;;;;;;6244694;28;20072;-71
2021/12/21 11:20:43;;;;;;;25.52;11.82;;;7.40;51.60;;;;;;6259837;28;20049;-71
2021/12/21 11:23:45;;;;;;;27.85;12.82;;;7.40;51.40;;;;;;6270015;28;20094;-71
2021/12/21 11:26:47;;;;;;;34.67;12.38;;;7.30;51.30;;;;;;6271066;28;20119;-72
2021/12/21 11:29:52;;;;;;;29.55;12.23;;;7.30;51.30;;;;;;6251829;28;20124;-73
2021/12/21 11:32:56;;;;;;;20.20;9.27;;;7.30;51.50;;;;;;6229732;28;20068;-72
2021/12/21 11:39:19;;;;;;;25.70;10.70;;;7.30;51.40;;;;;;6240220;28;20041;-71
2021/12/21 11:42:33;;;;;;;22.40;9.00;;;7.20;51.50;;;;;;6234800;28;20379;-70
2021/12/21 11:45:46;;;;;;;26.10;10.38;;;7.20;51.60;;;;;;6229402;28;20046;-70
2021/12/21 11:49:11;;;;;;;28.38;8.93;;;7.20;51.60;;;;;;6242580;28;20112;-71
2021/12/21 11:52:22;;;;;;;20.23;9.18;;;7.10;51.60;;;;;;6242187;28;20037;-70
2021/12/21 11:55:26;;;;;;;27.58;9.48;;;7.00;51.50;;;;;;6239644;28;20041;-72
2021/12/21 11:58:38;;;;;;;20.52;8.23;;;7.00;51.70;;;;;;6241322;28;20054;-70
2021/12/21 12:01:46;;;;;;;16.48;7.50;;;7.10;51.90;;;;;;6227321;28;20358;-71
2021/12/21 12:04:55;;;;;;;24.42;10.57;;;7.10;51.90;;;;;;6244515;28;20037;-72
2021/12/21 12:08:10;;;;;;;26.77;8.65;;;7.10;51.80;;;;;;6250287;28;20042;-72
2021/12/21 12:11:35;;;;;;;19.50;9.00;;;7.20;51.90;;;;;;6228570;28;20205;-72
2021/12/21 12:14:37;;;;;;;28.17;10.82;;;7.20;51.60;;;;;;6246302;28;20030;-70
2021/12/21 12:17:51;;;;;;;24.40;11.32;;;7.20;51.60;;;;;;6244558;28;20038;-70
2021/12/21 12:20:52;;;;;;;30.40;12.93;;;7.30;51.80;;;;;;6249180;28;20040;-70
2021/12/21 12:23:55;;;;;;;24.10;10.57;;;7.50;51.70;;;;;;6248669;28;20033;-70
2021/12/21 12:27:09;;;;;;;24.90;9.20;;;7.70;51.40;;;;;;6240230;28;20049;-71
2021/12/21 12:30:16;;;;;;;24.52;9.45;;;7.60;50.80;;;;;;6253358;28;20077;-71
2021/12/21 12:33:17;;;;;;;22.10;9.70;;;7.50;50.80;;;;;;6257949;28;20053;-70
2021/12/21 12:36:31;;;;;;;20.88;7.82;;;7.40;51.20;;;;;;6226814;28;20045;-71
2021/12/21 12:39:40;;;;;;;23.45;9.50;;;7.30;51.30;;;;;;6234240;28;20052;-70
2021/12/21 12:42:52;;;;;;;21.08;8.27;;;7.30;51.60;;;;;;6235679;28;20132;-70
2021/12/21 12:46:06;;;;;;;24.55;9.48;;;7.20;51.60;;;;;;6218681;28;20042;-71
2021/12/21 12:49:08;;;;;;;18.60;7.75;;;7.30;51.60;;;;;;6235188;28;20026;-72
2021/12/21 12:52:15;;;;;;;19.58;8.65;;;7.10;51.50;;;;;;6234306;28;20053;-71
2021/12/21 12:55:16;;;;;;;20.48;7.45;;;7.10;51.90;;;;;;6244868;28;20422;-71
2021/12/21 12:58:28;;;;;;;18.70;8.50;;;7.00;52.00;;;;;;6249739;28;20112;-70
2021/12/21 13:01:48;;;;;;;29.50;9.10;;;7.00;52.20;;;;;;6255062;28;20332;-71
2021/12/21 13:04:50;;;;;;;23.42;10.00;;;6.90;52.30;;;;;;6243112;28;20053;-70
2021/12/21 13:07:51;;;;;;;22.50;8.73;;;6.90;52.40;;;;;;6226900;28;20115;-71
2021/12/21 13:10:58;;;;;;;26.25;9.13;;;6.80;52.40;;;;;;6197245;28;20046;-70
2021/12/21 13:14:02;;;;;;;25.73;9.82;;;6.80;52.60;;;;;;6209087;28;20061;-71
2021/12/21 13:17:03;;;;;;;27.38;9.75;;;6.70;52.70;;;;;;6203608;28;20038;-71
2021/12/21 13:20:04;;;;;;;29.23;8.75;;;6.70;52.90;;;;;;6203958;28;20371;-72
2021/12/21 13:23:14;;;;;;;32.33;12.57;;;6.80;53.00;;;;;;6211851;28;20034;-71
2021/12/21 13:26:16;;;;;;;22.52;8.73;;;6.90;52.90;;;;;;6240770;28;20424;-70
2021/12/21 13:29:21;;;;;;;23.77;9.00;;;6.90;52.80;;;;;;6244652;28;20367;-72
2021/12/21 13:32:23;;;;;;;27.40;9.88;;;6.90;52.60;;;;;;6238735;28;20117;-72
2021/12/21 13:35:28;;;;;;;25.55;9.52;;;6.90;52.50;;;;;;6226373;28;20116;-72
2021/12/21 13:38:29;;;;;;;19.55;7.82;;;6.90;52.60;;;;;;6237698;28;20311;-72
2021/12/21 13:41:30;;;;;;;29.58;10.80;;;6.90;52.60;;;;;;6260706;28;20048;-71
2021/12/21 13:44:36;;;;;;;25.85;10.13;;;7.00;52.70;;;;;;6270210;28;20033;-70
2021/12/21 13:47:45;;;;;;;24.15;10.45;;;7.00;52.60;;;;;;6266689;28;20569;-71
2021/12/21 13:50:46;;;;;;;;;;;7.10;52.60;;;;;;6263968;28;20095;-73
2021/12/21 13:53:54;;;;;;;23.02;9.55;;;7.20;52.50;;;;;;6263884;28;19940;-73
2021/12/21 13:56:55;;;;;;;20.45;8.05;;;7.20;52.40;;;;;;6270643;28;20068;-71
2021/12/21 13:59:58;;;;;;;21.92;8.63;;;7.30;52.40;;;;;;6241891;28;20128;-71
2021/12/21 14:03:05;;;;;;;21.02;9.43;;;7.30;52.30;;;;;;6262169;28;20033;-71
2021/12/21 14:06:13;;;;;;;16.08;6.82;;;7.40;52.30;;;;;;6249383;28;20045;-71
2021/12/21 14:09:18;;;;;;;20.20;7.82;;;7.40;52.10;;;;;;6270751;28;20060;-71
2021/12/21 14:12:19;;;;;;;21.98;8.63;;;7.30;52.10;;;;;;6228772;28;20472;-70
2021/12/21 14:15:20;;;;;;;23.42;9.88;;;7.30;52.20;;;;;;6264483;28;20040;-71
2021/12/21 14:18:24;;;;;;;23.50;9.90;;;7.30;52.30;;;;;;6269577;28;20086;-71
2021/12/21 14:21:37;;;;;;;21.15;9.80;;;7.20;52.30;;;;;;6269765;28;20041;-70
2021/12/21 14:24:39;;;;;;;20.52;9.60;;;7.20;52.30;;;;;;6267210;28;20040;-71
2021/12/21 14:27:40;;;;;;;26.25;10.13;;;7.20;52.40;;;;;;6269080;28;20061;-71
2021/12/21 14:30:41;;;;;;;27.35;10.07;;;7.20;52.40;;;;;;6243181;28;20048;-69
2021/12/21 14:33:49;;;;;;;25.13;9.18;;;7.20;52.60;;;;;;6231204;28;20033;-70
2021/12/21 14:36:51;;;;;;;32.22;10.45;;;7.30;52.60;;;;;;6225379;28;20129;-70
2021/12/21 14:39:57;;;;;;;29.75;9.93;;;7.30;52.60;;;;;;6218941;28;20029;-70
2021/12/21 14:42:59;;;;;;;33.25;10.35;;;7.40;52.60;;;;;;6202148;28;20045;-71
2021/12/21 14:46:00;;;;;;;33.25;11.73;;;7.40;52.40;;;;;;6221266;28;20107;-70
2021/12/21 14:49:06;;;;;;;32.20;9.32;;;7.40;52.40;;;;;;6242559;28;20025;-71
2021/12/21 14:55:30;;;;;;;28.42;11.02;;;7.40;52.10;;;;;;6263826;28;20537;-71
2021/12/21 14:58:31;;;;;;;25.85;10.43;;;7.30;52.50;;;;;;6257874;28;20351;-71
2021/12/21 15:01:47;;;;;;;26.27;10.48;;;7.30;52.60;;;;;;6253412;28;20029;-71
2021/12/21 15:05:00;;;;;;;22.73;10.82;;;7.40;52.70;;;;;;6242038;28;20103;-73
2021/12/21 15:08:05;;;;;;;23.48;10.32;;;7.30;52.60;;;;;;6250464;28;20040;-74
2021/12/21 15:11:06;;;;;;;34.42;13.40;;;7.30;52.70;;;;;;6263122;28;20041;-73
2021/12/21 15:14:08;;;;;;;26.65;11.63;;;7.30;52.80;;;;;;6265459;28;20041;-74
2021/12/21 15:17:09;;;;;;;34.08;10.48;;;7.40;52.80;;;;;;6266015;28;20433;-72
2021/12/21 15:20:11;;;;;;;23.88;9.07;;;7.40;52.80;;;;;;6265444;28;20033;-74
2021/12/21 15:23:12;;;;;;;24.25;10.30;;;7.40;52.80;;;;;;6266704;28;20033;-74
2021/12/21 15:26:13;;;;;;;28.27;10.40;;;7.40;52.80;;;;;;6252118;28;20045;-72
2021/12/21 15:29:14;;;;;;;30.98;11.93;;;7.40;52.80;;;;;;6202669;28;20490;-72
2021/12/21 15:32:17;;;;;;;43.78;15.30;;;7.40;52.80;;;;;;6217020;28;20026;-71
2021/12/21 15:35:20;;;;;;;43.78;15.23;;;7.40;52.90;;;;;;6226565;28;20060;-71
2021/12/21 15:38:21;;;;;;;36.20;12.82;;;7.40;52.90;;;;;;6219847;28;20104;-72
2021/12/21 15:41:23;;;;;;;30.25;10.43;;;7.40;52.90;;;;;;6236317;28;20456;-73
2021/12/21 15:44:31;;;;;;;29.33;9.65;;;7.40;52.90;;;;;;6240523;28;20323;-71
2021/12/21 15:47:33;;;;;;;;;;;7.40;52.80;;;;;;6235314;28;20033;-72
2021/12/21 15:50:34;;;;;;;35.20;9.18;;;7.40;52.80;;;;;;6226554;28;20086;-71
2021/12/21 15:53:35;;;;;;;20.05;10.32;;;7.30;52.80;;;;;;6208418;28;20037;-71
2021/12/21 15:56:36;;;;;;;30.40;9.15;;;7.30;53.10;;;;;;6212946;28;20045;-71
2021/12/21 15:59:40;;;;;;;29.90;10.77;;;7.30;53.10;;;;;;6208005;28;20164;-72
2021/12/21 16:02:41;;;;;;;26.65;11.65;;;7.20;53.00;;;;;;6205808;28;20030;-70
2021/12/21 16:05:42;;;;;;;27.25;11.30;;;7.20;53.10;;;;;;6206167;28;23634;-70
2021/12/21 16:08:43;;;;;;;26.75;11.32;;;7.20;53.20;;;;;;6203697;28;20037;-75
2021/12/21 16:11:46;;;;;;;25.30;10.98;;;7.20;53.30;;;;;;6210343;28;20030;-70
2021/12/21 16:14:47;;;;;;;26.38;10.30;;;7.20;53.30;;;;;;6213719;28;20057;-71
2021/12/21 16:17:48;;;;;;;25.48;9.85;;;7.20;53.40;;;;;;6214976;28;20049;-71
2021/12/21 16:20:49;;;;;;;29.35;9.45;;;7.20;53.40;;;;;;6210660;28;20053;-69
2021/12/21 16:23:50;;;;;;;27.08;11.10;;;7.20;53.40;;;;;;6235645;28;20038;-70
2021/12/21 16:26:53;;;;;;;23.15;10.90;;;7.20;53.40;;;;;;6234862;28;20128;-71
2021/12/21 16:29:54;;;;;;;25.67;11.15;;;7.20;53.40;;;;;;6238674;28;20038;-73
2021/12/21 16:32:56;;;;;;;45.42;13.88;;;7.20;53.50;;;;;;6228438;28;20495;-70
2021/12/21 16:35:57;;;;;;;31.58;11.95;;;7.20;53.50;;;;;;6211702;28;20038;-70
2021/12/21 16:38:58;;;;;;;38.10;14.68;;;7.20;53.60;;;;;;6214098;28;20402;-70
2021/12/21 16:42:00;;;;;;;36.50;14.73;;;7.10;53.60;;;;;;6212915;28;20049;-72
2021/12/21 16:45:02;;;;;;;26.95;11.50;;;7.10;53.70;;;;;;6214873;28;20042;-72
2021/12/21 16:48:05;;;;;;;34.25;11.68;;;7.10;53.80;;;;;;6236554;28;20048;-71
2021/12/21 16:51:07;;;;;;;31.70;11.05;;;7.00;53.80;;;;;;6221049;28;20041;-72
2021/12/21 16:54:09;;;;;;;26.05;10.43;;;7.00;54.00;;;;;;6236914;28;20041;-71
2021/12/21 16:57:10;;;;;;;38.92;14.13;;;7.00;54.60;;;;;;6235967;28;20410;-70
2021/12/21 17:00:12;;;;;;;49.20;16.45;;;6.90;54.10;;;;;;6240242;28;20107;-72
2021/12/21 17:03:14;;;;;;;26.15;11.70;;;6.90;54.20;;;;;;6235266;28;20046;-72